sensor_id;sensor_type;location;lat;lon;timestamp;P1;durP1;ratioP1;P2;durP2;ratioP2
7645;SDS011;3864;48.180;14.178;2023-11-18T00:01:10;19.67;;;10.73;;
7645;SDS011;3864;48.180;14.178;2023-11-18T00:03:37;22.48;;;10.38;;
7645;SDS011;3864;48.180;14.178;2023-11-18T00:06:04;17.80;;;9.02;;
7645;SDS011;3864;48.180;14.178;2023-11-18T00:08:33;20.20;;;10.00;;
7645;SDS011;3864;48.180;14.178;2023-11-18T00:11:00;21.80;;;10.23;;
7645;SDS011;3864;48.180;14.178;2023-11-18T00:13:26;20.60;;;10.82;;
7645;SDS011;3864;48.180;14.178;2023-11-18T00:18:22;20.92;;;9.15;;
7645;SDS011;3864;48.180;14.178;2023-11-18T00:20:49;20.25;;;9.63;;
7645;SDS011;3864;48.180;14.178;2023-11-18T00:23:16;21.05;;;10.02;;
7645;SDS011;3864;48.180;14.178;2023-11-18T00:25:43;23.75;;;10.98;;
7645;SDS011;3864;48.180;14.178;2023-11-18T00:28:11;22.10;;;9.80;;
7645;SDS011;3864;48.180;14.178;2023-11-18T00:30:38;19.90;;;10.57;;
7645;SDS011;3864;48.180;14.178;2023-11-18T00:33:05;19.58;;;9.85;;
7645;SDS011;3864;48.180;14.178;2023-11-18T00:35:35;22.52;;;9.93;;
7645;SDS011;3864;48.180;14.178;2023-11-18T00:38:02;21.63;;;10.10;;
7645;SDS011;3864;48.180;14.178;2023-11-18T00:40:30;19.67;;;10.20;;
7645;SDS011;3864;48.180;14.178;2023-11-18T00:42:56;23.42;;;10.95;;
7645;SDS011;3864;48.180;14.178;2023-11-18T00:47:50;21.83;;;9.63;;
7645;SDS011;3864;48.180;14.178;2023-11-18T00:50:17;21.42;;;11.00;;
7645;SDS011;3864;48.180;14.178;2023-11-18T00:52:46;22.77;;;10.55;;
7645;SDS011;3864;48.180;14.178;2023-11-18T00:55:15;20.73;;;10.40;;
7645;SDS011;3864;48.180;14.178;2023-11-18T00:57:43;18.52;;;9.32;;
7645;SDS011;3864;48.180;14.178;2023-11-18T01:00:11;20.17;;;9.18;;
7645;SDS011;3864;48.180;14.178;2023-11-18T01:02:41;19.85;;;9.13;;
7645;SDS011;3864;48.180;14.178;2023-11-18T01:05:08;18.05;;;9.63;;
7645;SDS011;3864;48.180;14.178;2023-11-18T01:07:36;19.25;;;10.10;;
7645;SDS011;3864;48.180;14.178;2023-11-18T01:10:05;19.40;;;10.05;;
7645;SDS011;3864;48.180;14.178;2023-11-18T01:12:35;19.30;;;10.13;;
7645;SDS011;3864;48.180;14.178;2023-11-18T01:15:02;18.63;;;9.52;;
7645;SDS011;3864;48.180;14.178;2023-11-18T01:17:30;16.70;;;8.25;;
7645;SDS011;3864;48.180;14.178;2023-11-18T01:19:57;18.85;;;10.18;;
7645;SDS011;3864;48.180;14.178;2023-11-18T01:22:26;18.05;;;8.73;;
7645;SDS011;3864;48.180;14.178;2023-11-18T01:24:54;16.85;;;9.32;;
7645;SDS011;3864;48.180;14.178;2023-11-18T01:27:25;16.77;;;9.05;;
7645;SDS011;3864;48.180;14.178;2023-11-18T01:29:52;16.95;;;9.68;;
7645;SDS011;3864;48.180;14.178;2023-11-18T01:32:19;18.73;;;9.57;;
7645;SDS011;3864;48.180;14.178;2023-11-18T01:34:46;18.35;;;9.35;;
7645;SDS011;3864;48.180;14.178;2023-11-18T01:37:15;17.45;;;9.68;;
7645;SDS011;3864;48.180;14.178;2023-11-18T01:45:28;16.98;;;8.73;;
7645;SDS011;3864;48.180;14.178;2023-11-18T01:47:55;14.90;;;9.45;;
7645;SDS011;3864;48.180;14.178;2023-11-18T01:50:23;18.70;;;9.80;;
7645;SDS011;3864;48.180;14.178;2023-11-18T01:55:19;15.75;;;9.15;;
7645;SDS011;3864;48.180;14.178;2023-11-18T01:57:46;14.13;;;8.30;;
7645;SDS011;3864;48.180;14.178;2023-11-18T02:00:16;15.30;;;9.45;;
7645;SDS011;3864;48.180;14.178;2023-11-18T02:02:46;15.68;;;9.60;;
7645;SDS011;3864;48.180;14.178;2023-11-18T02:05:14;14.77;;;8.55;;
7645;SDS011;3864;48.180;14.178;2023-11-18T02:07:43;13.35;;;7.57;;
7645;SDS011;3864;48.180;14.178;2023-11-18T02:10:11;12.85;;;7.88;;
7645;SDS011;3864;48.180;14.178;2023-11-18T02:12:40;14.95;;;8.07;;
7645;SDS011;3864;48.180;14.178;2023-11-18T02:15:12;13.88;;;7.63;;
7645;SDS011;3864;48.180;14.178;2023-11-18T02:17:40;13.65;;;8.60;;
7645;SDS011;3864;48.180;14.178;2023-11-18T02:20:11;15.98;;;8.82;;
7645;SDS011;3864;48.180;14.178;2023-11-18T02:22:41;14.75;;;7.65;;
7645;SDS011;3864;48.180;14.178;2023-11-18T02:25:09;13.68;;;7.47;;
7645;SDS011;3864;48.180;14.178;2023-11-18T02:27:37;13.95;;;7.70;;
7645;SDS011;3864;48.180;14.178;2023-11-18T02:30:05;14.38;;;7.63;;
7645;SDS011;3864;48.180;14.178;2023-11-18T02:32:39;12.77;;;7.50;;
7645;SDS011;3864;48.180;14.178;2023-11-18T02:35:13;13.88;;;7.25;;
7645;SDS011;3864;48.180;14.178;2023-11-18T02:37:49;14.80;;;7.53;;
7645;SDS011;3864;48.180;14.178;2023-11-18T02:40:20;13.85;;;7.40;;
7645;SDS011;3864;48.180;14.178;2023-11-18T02:42:57;12.40;;;7.20;;
7645;SDS011;3864;48.180;14.178;2023-11-18T02:45:26;13.13;;;8.00;;
7645;SDS011;3864;48.180;14.178;2023-11-18T02:47:54;14.13;;;8.23;;
7645;SDS011;3864;48.180;14.178;2023-11-18T02:50:22;14.88;;;7.78;;
7645;SDS011;3864;48.180;14.178;2023-11-18T02:52:49;13.57;;;7.88;;
7645;SDS011;3864;48.180;14.178;2023-11-18T02:57:43;13.60;;;7.40;;
7645;SDS011;3864;48.180;14.178;2023-11-18T03:00:15;15.85;;;6.82;;
7645;SDS011;3864;48.180;14.178;2023-11-18T03:02:46;14.10;;;7.70;;
7645;SDS011;3864;48.180;14.178;2023-11-18T03:05:13;12.35;;;7.75;;
7645;SDS011;3864;48.180;14.178;2023-11-18T03:10:09;12.20;;;6.82;;
7645;SDS011;3864;48.180;14.178;2023-11-18T03:12:45;11.23;;;6.97;;
7645;SDS011;3864;48.180;14.178;2023-11-18T03:15:14;16.65;;;7.75;;
7645;SDS011;3864;48.180;14.178;2023-11-18T03:17:43;14.75;;;7.32;;
7645;SDS011;3864;48.180;14.178;2023-11-18T03:20:11;13.20;;;7.80;;
7645;SDS011;3864;48.180;14.178;2023-11-18T03:22:41;12.95;;;7.75;;
7645;SDS011;3864;48.180;14.178;2023-11-18T03:25:09;14.45;;;7.60;;
7645;SDS011;3864;48.180;14.178;2023-11-18T03:27:36;13.45;;;7.78;;
7645;SDS011;3864;48.180;14.178;2023-11-18T03:30:03;14.25;;;7.50;;
7645;SDS011;3864;48.180;14.178;2023-11-18T03:32:34;13.23;;;8.13;;
7645;SDS011;3864;48.180;14.178;2023-11-18T03:35:01;11.82;;;7.38;;
7645;SDS011;3864;48.180;14.178;2023-11-18T03:37:29;12.05;;;7.22;;
7645;SDS011;3864;48.180;14.178;2023-11-18T03:39:56;12.48;;;7.22;;
7645;SDS011;3864;48.180;14.178;2023-11-18T03:42:23;12.70;;;7.20;;
7645;SDS011;3864;48.180;14.178;2023-11-18T03:44:54;12.27;;;7.68;;
7645;SDS011;3864;48.180;14.178;2023-11-18T03:47:21;14.15;;;7.75;;
7645;SDS011;3864;48.180;14.178;2023-11-18T03:49:50;13.63;;;7.85;;
7645;SDS011;3864;48.180;14.178;2023-11-18T03:52:19;14.50;;;7.93;;
7645;SDS011;3864;48.180;14.178;2023-11-18T03:54:46;13.85;;;8.15;;
7645;SDS011;3864;48.180;14.178;2023-11-18T03:57:13;12.80;;;8.30;;
7645;SDS011;3864;48.180;14.178;2023-11-18T03:59:40;11.77;;;7.18;;
7645;SDS011;3864;48.180;14.178;2023-11-18T04:04:36;12.23;;;6.93;;
7645;SDS011;3864;48.180;14.178;2023-11-18T04:07:05;12.40;;;7.60;;
7645;SDS011;3864;48.180;14.178;2023-11-18T04:09:32;15.60;;;8.05;;
7645;SDS011;3864;48.180;14.178;2023-11-18T04:11:59;12.05;;;7.18;;
7645;SDS011;3864;48.180;14.178;2023-11-18T04:14:26;10.75;;;6.63;;
7645;SDS011;3864;48.180;14.178;2023-11-18T04:16:53;12.50;;;6.85;;
7645;SDS011;3864;48.180;14.178;2023-11-18T04:19:22;12.10;;;6.95;;
7645;SDS011;3864;48.180;14.178;2023-11-18T04:21:49;12.70;;;7.15;;
7645;SDS011;3864;48.180;14.178;2023-11-18T04:26:44;11.27;;;6.05;;
7645;SDS011;3864;48.180;14.178;2023-11-18T04:29:13;12.43;;;6.88;;
7645;SDS011;3864;48.180;14.178;2023-11-18T04:34:07;11.20;;;6.38;;
7645;SDS011;3864;48.180;14.178;2023-11-18T04:36:33;12.82;;;6.93;;
7645;SDS011;3864;48.180;14.178;2023-11-18T04:39:00;11.60;;;6.45;;
7645;SDS011;3864;48.180;14.178;2023-11-18T04:41:30;11.85;;;6.40;;
7645;SDS011;3864;48.180;14.178;2023-11-18T04:43:57;11.77;;;7.13;;
7645;SDS011;3864;48.180;14.178;2023-11-18T04:46:24;13.98;;;7.45;;
7645;SDS011;3864;48.180;14.178;2023-11-18T04:48:51;13.02;;;7.20;;
7645;SDS011;3864;48.180;14.178;2023-11-18T04:51:19;12.57;;;7.07;;
7645;SDS011;3864;48.180;14.178;2023-11-18T04:53:48;13.05;;;7.18;;
7645;SDS011;3864;48.180;14.178;2023-11-18T04:56:15;12.18;;;7.10;;
7645;SDS011;3864;48.180;14.178;2023-11-18T04:58:45;15.73;;;7.35;;
7645;SDS011;3864;48.180;14.178;2023-11-18T05:01:13;11.32;;;7.47;;
7645;SDS011;3864;48.180;14.178;2023-11-18T05:03:40;11.10;;;7.35;;
7645;SDS011;3864;48.180;14.178;2023-11-18T05:06:07;12.55;;;7.10;;
7645;SDS011;3864;48.180;14.178;2023-11-18T05:08:35;12.75;;;7.45;;
7645;SDS011;3864;48.180;14.178;2023-11-18T05:11:02;13.77;;;6.68;;
7645;SDS011;3864;48.180;14.178;2023-11-18T05:13:30;12.15;;;6.47;;
7645;SDS011;3864;48.180;14.178;2023-11-18T05:16:00;12.13;;;7.80;;
7645;SDS011;3864;48.180;14.178;2023-11-18T05:18:28;11.48;;;7.05;;
7645;SDS011;3864;48.180;14.178;2023-11-18T05:20:59;13.80;;;7.45;;
7645;SDS011;3864;48.180;14.178;2023-11-18T05:23:26;11.10;;;6.88;;
7645;SDS011;3864;48.180;14.178;2023-11-18T05:25:54;11.50;;;7.47;;
7645;SDS011;3864;48.180;14.178;2023-11-18T05:28:23;11.75;;;7.20;;
7645;SDS011;3864;48.180;14.178;2023-11-18T05:30:50;13.07;;;6.75;;
7645;SDS011;3864;48.180;14.178;2023-11-18T05:35:46;10.55;;;6.50;;
7645;SDS011;3864;48.180;14.178;2023-11-18T05:38:15;13.48;;;7.72;;
7645;SDS011;3864;48.180;14.178;2023-11-18T05:40:44;13.38;;;7.82;;
7645;SDS011;3864;48.180;14.178;2023-11-18T05:43:21;10.65;;;6.82;;
7645;SDS011;3864;48.180;14.178;2023-11-18T05:45:49;11.55;;;6.72;;
7645;SDS011;3864;48.180;14.178;2023-11-18T05:48:41;11.13;;;6.65;;
7645;SDS011;3864;48.180;14.178;2023-11-18T05:51:08;13.90;;;6.90;;
7645;SDS011;3864;48.180;14.178;2023-11-18T05:53:39;11.15;;;7.18;;
7645;SDS011;3864;48.180;14.178;2023-11-18T05:56:07;12.02;;;7.40;;
7645;SDS011;3864;48.180;14.178;2023-11-18T05:58:34;11.60;;;7.97;;
7645;SDS011;3864;48.180;14.178;2023-11-18T06:01:02;12.55;;;7.10;;
7645;SDS011;3864;48.180;14.178;2023-11-18T06:03:30;11.52;;;7.40;;
7645;SDS011;3864;48.180;14.178;2023-11-18T06:05:58;11.88;;;6.95;;
7645;SDS011;3864;48.180;14.178;2023-11-18T06:08:26;11.25;;;6.75;;
7645;SDS011;3864;48.180;14.178;2023-11-18T06:13:21;10.98;;;6.70;;
7645;SDS011;3864;48.180;14.178;2023-11-18T06:15:49;15.68;;;7.38;;
7645;SDS011;3864;48.180;14.178;2023-11-18T06:18:16;12.82;;;7.03;;
7645;SDS011;3864;48.180;14.178;2023-11-18T06:20:44;12.55;;;6.95;;
7645;SDS011;3864;48.180;14.178;2023-11-18T06:25:43;10.73;;;6.90;;
7645;SDS011;3864;48.180;14.178;2023-11-18T06:28:13;11.55;;;7.75;;
7645;SDS011;3864;48.180;14.178;2023-11-18T06:30:40;11.90;;;8.07;;
7645;SDS011;3864;48.180;14.178;2023-11-18T06:33:06;12.02;;;7.35;;
7645;SDS011;3864;48.180;14.178;2023-11-18T06:35:33;10.25;;;6.65;;
7645;SDS011;3864;48.180;14.178;2023-11-18T06:38:00;11.40;;;6.85;;
7645;SDS011;3864;48.180;14.178;2023-11-18T06:40:29;10.27;;;6.45;;
7645;SDS011;3864;48.180;14.178;2023-11-18T06:42:56;11.48;;;6.50;;
7645;SDS011;3864;48.180;14.178;2023-11-18T06:45:27;11.90;;;5.97;;
7645;SDS011;3864;48.180;14.178;2023-11-18T06:47:57;9.10;;;5.22;;
7645;SDS011;3864;48.180;14.178;2023-11-18T06:50:24;9.52;;;5.13;;
7645;SDS011;3864;48.180;14.178;2023-11-18T06:52:52;9.65;;;5.30;;
7645;SDS011;3864;48.180;14.178;2023-11-18T06:57:47;9.15;;;5.32;;
7645;SDS011;3864;48.180;14.178;2023-11-18T07:00:14;9.93;;;5.90;;
7645;SDS011;3864;48.180;14.178;2023-11-18T07:02:41;10.10;;;6.32;;
7645;SDS011;3864;48.180;14.178;2023-11-18T07:05:08;10.25;;;5.50;;
7645;SDS011;3864;48.180;14.178;2023-11-18T07:07:39;9.27;;;5.22;;
7645;SDS011;3864;48.180;14.178;2023-11-18T07:10:08;7.68;;;4.82;;
7645;SDS011;3864;48.180;14.178;2023-11-18T07:12:38;8.65;;;4.78;;
7645;SDS011;3864;48.180;14.178;2023-11-18T07:15:07;8.57;;;5.47;;
7645;SDS011;3864;48.180;14.178;2023-11-18T07:17:35;8.30;;;4.88;;
7645;SDS011;3864;48.180;14.178;2023-11-18T07:20:02;10.07;;;5.10;;
7645;SDS011;3864;48.180;14.178;2023-11-18T07:22:31;9.43;;;5.10;;
7645;SDS011;3864;48.180;14.178;2023-11-18T07:24:58;9.32;;;5.38;;
7645;SDS011;3864;48.180;14.178;2023-11-18T07:27:25;7.55;;;4.85;;
7645;SDS011;3864;48.180;14.178;2023-11-18T07:29:53;7.47;;;4.85;;
7645;SDS011;3864;48.180;14.178;2023-11-18T07:32:25;9.27;;;5.43;;
7645;SDS011;3864;48.180;14.178;2023-11-18T07:34:51;8.63;;;4.82;;
7645;SDS011;3864;48.180;14.178;2023-11-18T07:37:20;7.40;;;4.60;;
7645;SDS011;3864;48.180;14.178;2023-11-18T07:39:48;7.25;;;4.47;;
7645;SDS011;3864;48.180;14.178;2023-11-18T07:42:15;7.93;;;4.50;;
7645;SDS011;3864;48.180;14.178;2023-11-18T07:44:43;6.55;;;4.50;;
7645;SDS011;3864;48.180;14.178;2023-11-18T07:49:38;6.78;;;4.25;;
7645;SDS011;3864;48.180;14.178;2023-11-18T07:52:06;6.65;;;4.70;;
7645;SDS011;3864;48.180;14.178;2023-11-18T07:56:59;6.28;;;4.25;;
7645;SDS011;3864;48.180;14.178;2023-11-18T07:59:29;6.82;;;4.63;;
7645;SDS011;3864;48.180;14.178;2023-11-18T08:01:57;7.13;;;5.00;;
7645;SDS011;3864;48.180;14.178;2023-11-18T08:04:26;8.43;;;4.20;;
7645;SDS011;3864;48.180;14.178;2023-11-18T08:09:21;8.68;;;4.65;;
7645;SDS011;3864;48.180;14.178;2023-11-18T08:11:50;7.22;;;4.30;;
7645;SDS011;3864;48.180;14.178;2023-11-18T08:14:20;7.03;;;5.05;;
7645;SDS011;3864;48.180;14.178;2023-11-18T08:19:14;6.47;;;4.47;;
7645;SDS011;3864;48.180;14.178;2023-11-18T08:24:10;9.07;;;4.43;;
7645;SDS011;3864;48.180;14.178;2023-11-18T08:26:37;9.75;;;6.15;;
7645;SDS011;3864;48.180;14.178;2023-11-18T08:31:33;6.07;;;4.13;;
7645;SDS011;3864;48.180;14.178;2023-11-18T08:34:00;7.68;;;4.53;;
7645;SDS011;3864;48.180;14.178;2023-11-18T08:38:57;8.45;;;4.82;;
7645;SDS011;3864;48.180;14.178;2023-11-18T08:41:26;6.15;;;4.22;;
7645;SDS011;3864;48.180;14.178;2023-11-18T08:43:56;6.93;;;4.07;;
7645;SDS011;3864;48.180;14.178;2023-11-18T08:46:23;8.13;;;4.50;;
7645;SDS011;3864;48.180;14.178;2023-11-18T08:48:51;8.02;;;5.22;;
7645;SDS011;3864;48.180;14.178;2023-11-18T08:51:20;7.18;;;4.43;;
7645;SDS011;3864;48.180;14.178;2023-11-18T08:53:51;8.80;;;5.03;;
7645;SDS011;3864;48.180;14.178;2023-11-18T08:56:20;7.60;;;4.88;;
7645;SDS011;3864;48.180;14.178;2023-11-18T08:58:58;8.95;;;5.60;;
7645;SDS011;3864;48.180;14.178;2023-11-18T09:01:26;6.63;;;4.20;;
7645;SDS011;3864;48.180;14.178;2023-11-18T09:03:53;6.85;;;4.30;;
7645;SDS011;3864;48.180;14.178;2023-11-18T09:06:22;7.57;;;4.78;;
7645;SDS011;3864;48.180;14.178;2023-11-18T09:08:53;6.30;;;3.78;;
7645;SDS011;3864;48.180;14.178;2023-11-18T09:11:22;8.20;;;5.25;;
7645;SDS011;3864;48.180;14.178;2023-11-18T09:13:52;5.60;;;4.47;;
7645;SDS011;3864;48.180;14.178;2023-11-18T09:16:23;6.03;;;3.38;;
7645;SDS011;3864;48.180;14.178;2023-11-18T09:18:54;6.72;;;3.78;;
7645;SDS011;3864;48.180;14.178;2023-11-18T09:21:23;5.45;;;3.58;;
7645;SDS011;3864;48.180;14.178;2023-11-18T09:23:54;5.53;;;4.00;;
7645;SDS011;3864;48.180;14.178;2023-11-18T09:26:21;10.25;;;4.72;;
7645;SDS011;3864;48.180;14.178;2023-11-18T09:28:50;7.43;;;5.00;;
7645;SDS011;3864;48.180;14.178;2023-11-18T09:33:47;5.15;;;3.83;;
7645;SDS011;3864;48.180;14.178;2023-11-18T09:36:18;9.45;;;4.38;;
7645;SDS011;3864;48.180;14.178;2023-11-18T09:38:46;6.85;;;3.95;;
7645;SDS011;3864;48.180;14.178;2023-11-18T09:41:14;7.40;;;4.75;;
7645;SDS011;3864;48.180;14.178;2023-11-18T09:43:42;7.65;;;5.30;;
7645;SDS011;3864;48.180;14.178;2023-11-18T09:46:11;8.38;;;5.68;;
7645;SDS011;3864;48.180;14.178;2023-11-18T09:48:41;7.72;;;5.00;;
7645;SDS011;3864;48.180;14.178;2023-11-18T09:51:17;6.78;;;4.22;;
7645;SDS011;3864;48.180;14.178;2023-11-18T09:53:48;6.88;;;3.97;;
7645;SDS011;3864;48.180;14.178;2023-11-18T09:56:18;7.38;;;4.50;;
7645;SDS011;3864;48.180;14.178;2023-11-18T09:58:57;5.40;;;3.60;;
7645;SDS011;3864;48.180;14.178;2023-11-18T10:01:34;6.32;;;4.05;;
7645;SDS011;3864;48.180;14.178;2023-11-18T10:04:04;6.90;;;4.40;;
7645;SDS011;3864;48.180;14.178;2023-11-18T10:06:35;6.60;;;4.50;;
7645;SDS011;3864;48.180;14.178;2023-11-18T10:09:05;6.88;;;4.60;;
7645;SDS011;3864;48.180;14.178;2023-11-18T10:11:42;7.13;;;4.45;;
7645;SDS011;3864;48.180;14.178;2023-11-18T10:14:11;7.22;;;4.47;;
7645;SDS011;3864;48.180;14.178;2023-11-18T10:16:40;5.95;;;4.13;;
7645;SDS011;3864;48.180;14.178;2023-11-18T10:19:11;4.70;;;3.22;;
7645;SDS011;3864;48.180;14.178;2023-11-18T10:21:41;5.47;;;3.50;;
7645;SDS011;3864;48.180;14.178;2023-11-18T10:24:08;5.70;;;4.28;;
7645;SDS011;3864;48.180;14.178;2023-11-18T10:26:40;5.50;;;4.13;;
7645;SDS011;3864;48.180;14.178;2023-11-18T10:29:10;5.90;;;3.85;;
7645;SDS011;3864;48.180;14.178;2023-11-18T10:31:38;5.82;;;4.07;;
7645;SDS011;3864;48.180;14.178;2023-11-18T10:34:10;6.13;;;3.80;;
7645;SDS011;3864;48.180;14.178;2023-11-18T10:36:42;7.05;;;3.85;;
7645;SDS011;3864;48.180;14.178;2023-11-18T10:39:27;6.50;;;4.53;;
7645;SDS011;3864;48.180;14.178;2023-11-18T10:41:58;5.93;;;4.18;;
7645;SDS011;3864;48.180;14.178;2023-11-18T10:44:25;5.97;;;4.07;;
7645;SDS011;3864;48.180;14.178;2023-11-18T10:46:54;5.75;;;3.53;;
7645;SDS011;3864;48.180;14.178;2023-11-18T10:49:23;5.78;;;4.10;;
7645;SDS011;3864;48.180;14.178;2023-11-18T10:51:52;7.07;;;4.40;;
7645;SDS011;3864;48.180;14.178;2023-11-18T10:54:21;5.95;;;4.53;;
7645;SDS011;3864;48.180;14.178;2023-11-18T10:56:51;6.97;;;3.90;;
7645;SDS011;3864;48.180;14.178;2023-11-18T10:59:21;6.30;;;4.40;;
7645;SDS011;3864;48.180;14.178;2023-11-18T11:01:50;7.65;;;4.93;;
7645;SDS011;3864;48.180;14.178;2023-11-18T11:04:18;6.05;;;4.05;;
7645;SDS011;3864;48.180;14.178;2023-11-18T11:06:46;6.95;;;4.28;;
7645;SDS011;3864;48.180;14.178;2023-11-18T11:09:20;5.22;;;4.15;;
7645;SDS011;3864;48.180;14.178;2023-11-18T11:11:53;5.57;;;4.22;;
7645;SDS011;3864;48.180;14.178;2023-11-18T11:14:24;4.88;;;3.67;;
7645;SDS011;3864;48.180;14.178;2023-11-18T11:17:00;9.23;;;5.00;;
7645;SDS011;3864;48.180;14.178;2023-11-18T11:19:38;14.18;;;6.75;;
7645;SDS011;3864;48.180;14.178;2023-11-18T11:22:14;8.82;;;4.60;;
7645;SDS011;3864;48.180;14.178;2023-11-18T11:24:52;5.43;;;4.05;;
7645;SDS011;3864;48.180;14.178;2023-11-18T11:27:38;9.48;;;5.45;;
7645;SDS011;3864;48.180;14.178;2023-11-18T11:30:20;8.48;;;4.68;;
7645;SDS011;3864;48.180;14.178;2023-11-18T11:32:50;7.22;;;4.57;;
7645;SDS011;3864;48.180;14.178;2023-11-18T11:35:19;6.90;;;4.57;;
7645;SDS011;3864;48.180;14.178;2023-11-18T11:37:50;5.43;;;4.55;;
7645;SDS011;3864;48.180;14.178;2023-11-18T11:40:24;5.45;;;3.78;;
7645;SDS011;3864;48.180;14.178;2023-11-18T11:42:54;5.68;;;3.80;;
7645;SDS011;3864;48.180;14.178;2023-11-18T11:45:22;6.60;;;4.15;;
7645;SDS011;3864;48.180;14.178;2023-11-18T11:47:54;6.57;;;3.80;;
7645;SDS011;3864;48.180;14.178;2023-11-18T11:50:39;5.47;;;3.90;;
7645;SDS011;3864;48.180;14.178;2023-11-18T11:53:20;6.00;;;3.40;;
7645;SDS011;3864;48.180;14.178;2023-11-18T11:55:52;8.20;;;4.07;;
7645;SDS011;3864;48.180;14.178;2023-11-18T11:58:30;5.18;;;3.92;;
7645;SDS011;3864;48.180;14.178;2023-11-18T12:00:59;5.45;;;4.15;;
7645;SDS011;3864;48.180;14.178;2023-11-18T12:03:32;6.10;;;3.88;;
7645;SDS011;3864;48.180;14.178;2023-11-18T12:06:05;5.78;;;3.85;;
7645;SDS011;3864;48.180;14.178;2023-11-18T12:08:34;5.93;;;4.10;;
7645;SDS011;3864;48.180;14.178;2023-11-18T12:11:06;7.20;;;4.63;;
7645;SDS011;3864;48.180;14.178;2023-11-18T12:13:37;5.53;;;4.28;;
7645;SDS011;3864;48.180;14.178;2023-11-18T12:16:10;5.07;;;3.65;;
7645;SDS011;3864;48.180;14.178;2023-11-18T12:18:41;6.05;;;3.63;;
7645;SDS011;3864;48.180;14.178;2023-11-18T12:21:09;5.35;;;4.30;;
7645;SDS011;3864;48.180;14.178;2023-11-18T12:26:48;4.85;;;3.40;;
7645;SDS011;3864;48.180;14.178;2023-11-18T12:29:30;5.85;;;4.40;;
7645;SDS011;3864;48.180;14.178;2023-11-18T12:31:57;4.65;;;3.53;;
7645;SDS011;3864;48.180;14.178;2023-11-18T12:34:25;6.93;;;5.10;;
7645;SDS011;3864;48.180;14.178;2023-11-18T12:37:33;5.35;;;3.72;;
7645;SDS011;3864;48.180;14.178;2023-11-18T12:40:52;6.53;;;4.68;;
7645;SDS011;3864;48.180;14.178;2023-11-18T12:43:26;4.65;;;3.10;;
7645;SDS011;3864;48.180;14.178;2023-11-18T12:46:35;6.20;;;3.53;;
7645;SDS011;3864;48.180;14.178;2023-11-18T12:49:15;5.30;;;4.13;;
7645;SDS011;3864;48.180;14.178;2023-11-18T12:51:48;5.05;;;3.92;;
7645;SDS011;3864;48.180;14.178;2023-11-18T12:54:19;5.43;;;3.97;;
7645;SDS011;3864;48.180;14.178;2023-11-18T12:56:47;6.15;;;4.03;;
7645;SDS011;3864;48.180;14.178;2023-11-18T12:59:17;5.55;;;3.60;;
7645;SDS011;3864;48.180;14.178;2023-11-18T13:01:44;4.55;;;3.38;;
7645;SDS011;3864;48.180;14.178;2023-11-18T13:04:18;5.30;;;3.70;;
7645;SDS011;3864;48.180;14.178;2023-11-18T13:06:46;5.07;;;3.50;;
7645;SDS011;3864;48.180;14.178;2023-11-18T13:09:16;7.88;;;3.90;;
7645;SDS011;3864;48.180;14.178;2023-11-18T13:11:53;4.80;;;3.35;;
7645;SDS011;3864;48.180;14.178;2023-11-18T13:14:25;5.70;;;3.47;;
7645;SDS011;3864;48.180;14.178;2023-11-18T13:16:55;5.25;;;3.85;;
7645;SDS011;3864;48.180;14.178;2023-11-18T13:19:23;6.35;;;3.95;;
7645;SDS011;3864;48.180;14.178;2023-11-18T13:21:51;6.03;;;3.72;;
7645;SDS011;3864;48.180;14.178;2023-11-18T13:24:22;6.50;;;3.95;;
7645;SDS011;3864;48.180;14.178;2023-11-18T13:26:49;5.63;;;3.67;;
7645;SDS011;3864;48.180;14.178;2023-11-18T13:29:17;5.55;;;3.95;;
7645;SDS011;3864;48.180;14.178;2023-11-18T13:31:48;5.05;;;3.63;;
7645;SDS011;3864;48.180;14.178;2023-11-18T13:34:16;6.75;;;4.50;;
7645;SDS011;3864;48.180;14.178;2023-11-18T13:36:43;5.70;;;3.90;;
7645;SDS011;3864;48.180;14.178;2023-11-18T13:39:15;5.97;;;4.70;;
7645;SDS011;3864;48.180;14.178;2023-11-18T13:44:43;4.93;;;4.07;;
7645;SDS011;3864;48.180;14.178;2023-11-18T13:47:13;6.68;;;4.30;;
7645;SDS011;3864;48.180;14.178;2023-11-18T13:49:42;8.73;;;4.25;;
7645;SDS011;3864;48.180;14.178;2023-11-18T13:52:12;5.55;;;4.28;;
7645;SDS011;3864;48.180;14.178;2023-11-18T13:54:41;6.68;;;4.07;;
7645;SDS011;3864;48.180;14.178;2023-11-18T13:57:10;6.10;;;4.60;;
7645;SDS011;3864;48.180;14.178;2023-11-18T13:59:37;6.20;;;4.25;;
7645;SDS011;3864;48.180;14.178;2023-11-18T14:02:09;5.30;;;4.00;;
7645;SDS011;3864;48.180;14.178;2023-11-18T14:04:39;10.25;;;4.95;;
7645;SDS011;3864;48.180;14.178;2023-11-18T14:07:08;6.75;;;4.43;;
7645;SDS011;3864;48.180;14.178;2023-11-18T14:09:37;6.22;;;4.47;;
7645;SDS011;3864;48.180;14.178;2023-11-18T14:12:05;6.80;;;5.32;;
7645;SDS011;3864;48.180;14.178;2023-11-18T14:14:33;8.20;;;4.13;;
7645;SDS011;3864;48.180;14.178;2023-11-18T14:17:02;6.40;;;4.22;;
7645;SDS011;3864;48.180;14.178;2023-11-18T14:19:31;5.63;;;4.10;;
7645;SDS011;3864;48.180;14.178;2023-11-18T14:22:02;5.93;;;4.15;;
7645;SDS011;3864;48.180;14.178;2023-11-18T14:24:31;5.80;;;4.10;;
7645;SDS011;3864;48.180;14.178;2023-11-18T14:26:58;6.60;;;4.40;;
7645;SDS011;3864;48.180;14.178;2023-11-18T14:29:25;4.85;;;4.10;;
7645;SDS011;3864;48.180;14.178;2023-11-18T14:31:52;5.68;;;4.28;;
7645;SDS011;3864;48.180;14.178;2023-11-18T14:34:20;6.00;;;3.97;;
7645;SDS011;3864;48.180;14.178;2023-11-18T14:36:47;5.40;;;3.88;;
7645;SDS011;3864;48.180;14.178;2023-11-18T14:39:16;6.10;;;4.57;;
7645;SDS011;3864;48.180;14.178;2023-11-18T14:41:47;5.68;;;4.40;;
7645;SDS011;3864;48.180;14.178;2023-11-18T14:44:14;6.40;;;4.57;;
7645;SDS011;3864;48.180;14.178;2023-11-18T14:46:42;5.60;;;4.13;;
7645;SDS011;3864;48.180;14.178;2023-11-18T14:49:10;5.78;;;4.20;;
7645;SDS011;3864;48.180;14.178;2023-11-18T14:51:37;6.85;;;4.78;;
7645;SDS011;3864;48.180;14.178;2023-11-18T14:54:08;6.70;;;4.78;;
7645;SDS011;3864;48.180;14.178;2023-11-18T14:56:37;6.10;;;4.50;;
7645;SDS011;3864;48.180;14.178;2023-11-18T14:59:04;6.85;;;4.50;;
7645;SDS011;3864;48.180;14.178;2023-11-18T15:01:33;6.63;;;4.90;;
7645;SDS011;3864;48.180;14.178;2023-11-18T15:04:00;7.25;;;4.85;;
7645;SDS011;3864;48.180;14.178;2023-11-18T15:06:30;8.02;;;5.28;;
7645;SDS011;3864;48.180;14.178;2023-11-18T15:11:24;6.75;;;4.43;;
7645;SDS011;3864;48.180;14.178;2023-11-18T15:16:21;6.78;;;4.43;;
7645;SDS011;3864;48.180;14.178;2023-11-18T15:18:48;8.13;;;5.30;;
7645;SDS011;3864;48.180;14.178;2023-11-18T15:21:17;8.45;;;5.97;;
7645;SDS011;3864;48.180;14.178;2023-11-18T15:23:44;8.35;;;5.63;;
7645;SDS011;3864;48.180;14.178;2023-11-18T15:26:13;7.63;;;5.57;;
7645;SDS011;3864;48.180;14.178;2023-11-18T15:28:40;7.30;;;5.45;;
7645;SDS011;3864;48.180;14.178;2023-11-18T15:31:09;9.32;;;6.25;;
7645;SDS011;3864;48.180;14.178;2023-11-18T15:33:37;7.72;;;5.43;;
7645;SDS011;3864;48.180;14.178;2023-11-18T15:38:32;8.88;;;6.05;;
7645;SDS011;3864;48.180;14.178;2023-11-18T15:41:00;9.65;;;6.20;;
7645;SDS011;3864;48.180;14.178;2023-11-18T15:43:28;8.98;;;5.65;;
7645;SDS011;3864;48.180;14.178;2023-11-18T15:48:25;8.98;;;6.20;;
7645;SDS011;3864;48.180;14.178;2023-11-18T15:50:52;8.23;;;6.05;;
7645;SDS011;3864;48.180;14.178;2023-11-18T15:53:20;9.35;;;6.22;;
7645;SDS011;3864;48.180;14.178;2023-11-18T15:55:48;9.75;;;6.32;;
7645;SDS011;3864;48.180;14.178;2023-11-18T15:58:15;10.32;;;6.47;;
7645;SDS011;3864;48.180;14.178;2023-11-18T16:00:43;11.35;;;7.15;;
7645;SDS011;3864;48.180;14.178;2023-11-18T16:03:11;9.57;;;6.57;;
7645;SDS011;3864;48.180;14.178;2023-11-18T16:05:40;10.48;;;6.85;;
7645;SDS011;3864;48.180;14.178;2023-11-18T16:08:07;10.88;;;6.80;;
7645;SDS011;3864;48.180;14.178;2023-11-18T16:10:35;11.52;;;7.38;;
7645;SDS011;3864;48.180;14.178;2023-11-18T16:13:02;12.43;;;7.30;;
7645;SDS011;3864;48.180;14.178;2023-11-18T16:15:29;10.77;;;7.60;;
7645;SDS011;3864;48.180;14.178;2023-11-18T16:17:58;10.98;;;7.28;;
7645;SDS011;3864;48.180;14.178;2023-11-18T16:20:26;11.80;;;8.30;;